createdAt,value
2019-05-11T00:00:33.082Z,94883.44
2019-05-11T00:02:59.095Z,94884.85
2019-05-11T00:05:25.122Z,94888.83
2019-05-11T00:07:51.143Z,94886.17
2019-05-11T00:10:17.164Z,94883.14
2019-05-11T00:12:43.173Z,94876.88
2019-05-11T00:15:09.200Z,94881.70
2019-05-11T00:17:35.215Z,94885.88
2019-05-11T00:20:01.376Z,94888.03
2019-05-11T00:22:27.351Z,94880.87
2019-05-11T00:24:53.379Z,94883.14
2019-05-11T00:27:19.399Z,94881.81
2019-05-11T00:29:45.411Z,94882.72
2019-05-11T00:32:11.428Z,94882.72
2019-05-11T00:34:37.441Z,94878.74
2019-05-11T00:37:03.467Z,94881.06
2019-05-11T00:39:29.477Z,94878.83
2019-05-11T00:41:55.523Z,94876.58
2019-05-11T00:44:21.551Z,94882.30
2019-05-11T00:46:47.561Z,94882.80
2019-05-11T00:49:13.581Z,94882.80
2019-05-11T00:51:39.592Z,94879.23
2019-05-11T00:54:05.611Z,94880.15
2019-05-11T00:56:31.633Z,94882.30
2019-05-11T00:58:57.654Z,94881.48
2019-05-11T01:01:23.664Z,94886.78
2019-05-11T01:03:49.735Z,94887.20
2019-05-11T01:06:15.761Z,94891.19
2019-05-11T01:08:41.760Z,94888.12
2019-05-11T01:11:07.781Z,94895.66
2019-05-11T01:13:33.801Z,94889.97
2019-05-11T01:15:59.819Z,94893.02
2019-05-11T01:18:25.841Z,94891.68
2019-05-11T01:20:51.870Z,94890.77
2019-05-11T01:23:17.885Z,94890.47
2019-05-11T01:25:43.924Z,94895.36
2019-05-11T01:28:09.967Z,94900.59
2019-05-11T01:30:38.686Z,94899.27
2019-05-11T01:33:02.003Z,94899.34
2019-05-11T01:35:28.019Z,94897.10
2019-05-11T01:37:54.132Z,94902.83
2019-05-11T01:40:20.144Z,94904.16
2019-05-11T01:42:46.186Z,94913.45
2019-05-11T01:45:12.211Z,94917.02
2019-05-11T01:47:38.212Z,94916.60
2019-05-11T01:50:04.228Z,94919.67
2019-05-11T01:52:30.247Z,94920.17
2019-05-11T01:54:56.267Z,94926.39
2019-05-11T01:57:22.272Z,94928.12
2019-05-11T01:59:48.290Z,94933.36
2019-05-11T02:02:14.307Z,94940.98
2019-05-11T02:04:40.364Z,94940.19
2019-05-11T02:07:06.377Z,94934.35
2019-05-11T02:09:32.389Z,94930.38
2019-05-11T02:11:58.413Z,94929.05
2019-05-11T02:14:24.436Z,94935.30
2019-05-11T02:16:50.444Z,94932.11
2019-05-11T02:19:16.459Z,94931.70
2019-05-11T02:21:42.477Z,94933.97
2019-05-11T02:24:08.486Z,94931.81
2019-05-11T02:26:34.505Z,94929.98
2019-05-11T02:29:00.520Z,94934.77
2019-05-11T02:31:26.647Z,94938.34
2019-05-11T02:33:52.559Z,94928.33
2019-05-11T02:36:18.600Z,94933.44
2019-05-11T02:38:44.618Z,94925.59
2019-05-11T02:41:10.640Z,94932.23
2019-05-11T02:43:36.651Z,94941.10
2019-05-11T02:46:02.678Z,94943.76
2019-05-11T02:48:28.704Z,94949.98
2019-05-11T02:50:54.719Z,94943.34
2019-05-11T02:53:20.805Z,94944.97
2019-05-11T02:55:46.801Z,94948.66
2019-05-11T02:58:12.810Z,94951.80
2019-05-11T03:00:38.833Z,94956.61
2019-05-11T03:03:04.848Z,94953.55
2019-05-11T03:05:30.867Z,94955.40
2019-05-11T03:07:56.873Z,94953.13
2019-05-11T03:10:22.896Z,94955.29
2019-05-11T03:12:48.905Z,94956.61
2019-05-11T03:15:14.941Z,94960.59
2019-05-11T03:17:40.953Z,94968.67
2019-05-11T03:20:06.968Z,94963.25
2019-05-11T03:22:32.989Z,94967.34
2019-05-11T03:24:58.998Z,94972.13
2019-05-11T03:27:25.022Z,94978.34
2019-05-11T03:29:51.031Z,94981.11
2019-05-11T03:32:17.054Z,94978.34
2019-05-11T03:34:43.074Z,94984.19
2019-05-11T03:37:09.093Z,94986.73
2019-05-11T03:39:35.113Z,94993.37
2019-05-11T03:42:13.792Z,94985.93
2019-05-11T03:44:27.148Z,94986.42
2019-05-11T03:46:53.193Z,94990.41
2019-05-11T03:49:19.208Z,95001.03
2019-05-11T03:51:45.229Z,94997.45
2019-05-11T03:54:11.236Z,94997.45
2019-05-11T03:56:37.253Z,94994.80
2019-05-11T03:59:03.282Z,94995.61
2019-05-11T04:01:29.293Z,95002.35
2019-05-11T04:03:55.302Z,95001.94
2019-05-11T04:06:21.314Z,95004.52
2019-05-11T04:08:47.348Z,95006.75
2019-05-11T04:11:13.477Z,95007.66
2019-05-11T04:13:39.517Z,95005.31
2019-05-11T04:16:05.499Z,95009.71
2019-05-11T04:18:31.519Z,95006.75
2019-05-11T04:20:57.509Z,95009.30
2019-05-11T04:23:23.533Z,95007.55
2019-05-11T04:25:49.606Z,95016.34
2019-05-11T04:28:15.623Z,95019.50
2019-05-11T04:30:41.629Z,95024.73
2019-05-11T04:33:07.652Z,95016.46
2019-05-11T04:35:33.667Z,95020.75
2019-05-11T04:37:59.674Z,95019.72
2019-05-11T04:40:25.691Z,95017.90
2019-05-11T04:42:55.599Z,95020.06
2019-05-11T04:45:17.710Z,95016.08
2019-05-11T04:47:43.740Z,95018.73
2019-05-11T04:50:09.730Z,95017.48
2019-05-11T04:52:35.748Z,95018.31
2019-05-11T04:55:01.771Z,95028.10
2019-05-11T04:57:27.757Z,95029.84
2019-05-11T04:59:53.778Z,95033.72
2019-05-11T05:02:19.784Z,95038.64
2019-05-11T05:04:45.798Z,95044.34
2019-05-11T05:07:12.341Z,95043.42
2019-05-11T05:09:42.423Z,95043.84
2019-05-11T05:12:08.411Z,95049.56
2019-05-11T05:14:29.886Z,95043.84
2019-05-11T05:16:55.906Z,95045.28
2019-05-11T05:19:21.900Z,95047.10
2019-05-11T05:21:47.907Z,95052.00
2019-05-11T05:24:14.764Z,95052.83
2019-05-11T05:26:40.853Z,95050.67
2019-05-11T05:29:08.827Z,95051.92
2019-05-11T05:31:36.675Z,95058.94
2019-05-11T05:34:10.096Z,95058.03
2019-05-11T05:36:36.091Z,95055.90
2019-05-11T05:39:02.115Z,95052.94
2019-05-11T05:41:31.207Z,95052.53
2019-05-11T05:43:57.226Z,95053.28
2019-05-11T05:46:23.244Z,95055.52
2019-05-11T05:48:49.267Z,95054.08
2019-05-11T05:51:15.313Z,95050.81
2019-05-11T05:53:41.323Z,95053.28
2019-05-11T05:56:07.343Z,95052.86
2019-05-11T05:58:33.387Z,95046.53
2019-05-11T06:00:59.369Z,95051.27
2019-05-11T06:03:25.387Z,95061.92
2019-05-11T06:05:51.401Z,95055.25
2019-05-11T06:08:17.427Z,95066.37
2019-05-11T06:10:43.435Z,95062.91
2019-05-11T06:13:09.437Z,95071.87
2019-05-11T06:15:35.485Z,95067.50
2019-05-11T06:18:01.523Z,95071.48
2019-05-11T06:20:27.538Z,95079.03
2019-05-11T06:22:53.541Z,95077.78
2019-05-11T06:25:23.084Z,95087.00
2019-05-11T06:27:49.079Z,95086.58
2019-05-11T06:30:15.103Z,95094.55
2019-05-11T06:32:41.129Z,95094.55
2019-05-11T06:35:07.125Z,95090.75
2019-05-11T06:37:33.376Z,95090.15
2019-05-11T06:39:59.406Z,95084.42
2019-05-11T06:42:25.423Z,95084.20
2019-05-11T06:44:51.441Z,95084.42
2019-05-11T06:47:17.507Z,95078.31
2019-05-11T06:49:43.808Z,95086.58
2019-05-11T06:52:09.816Z,95079.22
2019-05-11T06:54:35.866Z,95078.70
2019-05-11T06:57:01.950Z,95079.03
2019-05-11T06:59:27.960Z,95078.51
2019-05-11T07:02:01.891Z,95068.72
2019-05-11T07:04:27.892Z,95082.48
2019-05-11T07:06:54.594Z,95081.50
2019-05-11T07:09:20.607Z,95077.93
2019-05-11T07:11:57.214Z,95077.41
2019-05-11T07:14:23.195Z,95081.72
2019-05-11T07:16:49.215Z,95075.16
2019-05-11T07:19:15.217Z,95076.49
2019-05-11T07:21:41.290Z,95079.26
2019-05-11T07:24:09.664Z,95073.84
2019-05-11T07:26:35.674Z,95067.20
2019-05-11T07:29:01.724Z,95065.98
2019-05-11T07:31:27.732Z,95073.95
2019-05-11T07:33:53.749Z,95081.91
2019-05-11T07:36:19.746Z,95085.37
2019-05-11T07:38:45.762Z,95080.17
2019-05-11T07:41:12.483Z,95073.00
2019-05-11T07:43:38.504Z,95078.73
2019-05-11T07:46:04.545Z,95081.31
2019-05-11T07:48:30.703Z,95089.27
2019-05-11T07:50:58.425Z,95087.53
2019-05-11T07:53:22.723Z,95086.20
2019-05-11T07:55:48.739Z,95094.25
2019-05-11T07:58:14.771Z,95093.75
2019-05-11T08:00:40.800Z,95088.44
2019-05-11T08:03:08.937Z,95082.72
2019-05-11T08:05:32.863Z,95093.75
2019-05-11T08:07:59.532Z,95083.55
2019-05-11T08:10:24.886Z,95086.62
2019-05-11T08:12:50.906Z,95088.02
2019-05-11T08:15:18.353Z,95090.60
2019-05-11T08:17:42.927Z,95094.05
2019-05-11T08:20:08.915Z,95087.03
2019-05-11T08:22:34.992Z,95094.47
2019-05-11T08:25:00.978Z,95096.63
2019-05-11T08:27:28.534Z,95087.34
2019-05-11T08:29:53.012Z,95085.09
2019-05-11T08:32:19.024Z,95085.18
2019-05-11T08:34:45.195Z,95086.01
2019-05-11T08:37:11.218Z,95089.88
2019-05-11T08:39:38.695Z,95077.55
2019-05-11T08:42:04.991Z,95077.44
2019-05-11T08:44:30.923Z,95073.45
2019-05-11T08:46:58.213Z,95073.77
2019-05-11T08:49:22.987Z,95074.59
2019-05-11T08:51:48.978Z,95066.12
2019-05-11T08:54:15.040Z,95062.56
2019-05-11T08:56:41.035Z,95064.69
2019-05-11T08:59:07.975Z,95057.25
2019-05-11T09:01:33.078Z,95062.56
2019-05-11T09:03:59.102Z,95056.72
2019-05-11T09:06:25.109Z,95066.85
2019-05-11T09:08:51.107Z,95070.84
2019-05-11T09:11:19.030Z,95073.91
2019-05-11T09:13:43.127Z,95065.11
2019-05-11T09:16:09.149Z,95066.36
2019-05-11T09:18:35.174Z,95073.80
2019-05-11T09:21:01.188Z,95065.41
2019-05-11T09:23:34.572Z,95059.72
2019-05-11T09:25:53.196Z,95060.70
2019-05-11T09:28:19.264Z,95068.17
2019-05-11T09:30:45.258Z,95065.60
2019-05-11T09:33:11.585Z,95071.33
2019-05-11T09:35:47.525Z,95058.97
2019-05-11T09:38:03.686Z,95060.70
2019-05-11T09:40:29.679Z,95058.97
2019-05-11T09:42:55.708Z,95058.58
2019-05-11T09:45:21.758Z,95061.73
2019-05-11T09:47:47.892Z,95054.59
2019-05-11T09:50:13.776Z,95054.18
2019-05-11T09:52:39.784Z,95055.92
2019-05-11T09:55:05.784Z,95053.16
2019-05-11T09:57:31.806Z,95050.31
2019-05-11T09:59:58.322Z,95054.30
2019-05-11T10:02:23.820Z,95049.89
2019-05-11T10:04:49.833Z,95056.87
2019-05-11T10:07:17.939Z,95058.28
2019-05-11T10:09:41.857Z,95058.28
2019-05-11T10:12:08.280Z,95059.52
2019-05-11T10:14:34.087Z,95050.42
2019-05-11T10:17:00.080Z,95050.72
2019-05-11T10:19:28.245Z,95054.02
2019-05-11T10:21:52.096Z,95058.61
2019-05-11T10:24:18.095Z,95054.85
2019-05-11T10:26:44.553Z,95053.03
2019-05-11T10:29:11.292Z,95052.84
2019-05-11T10:31:38.545Z,95058.04
2019-05-11T10:34:04.124Z,95050.41
2019-05-11T10:36:30.141Z,95044.06
2019-05-11T10:38:58.650Z,95039.78
2019-05-11T10:41:22.211Z,95035.69
2019-05-11T10:43:48.983Z,95024.45
2019-05-11T10:46:19.359Z,95019.89
2019-05-11T10:48:40.273Z,95032.23
2019-05-11T10:51:08.263Z,95035.41
2019-05-11T10:53:32.416Z,95026.11
2019-05-11T10:55:58.429Z,95026.11
2019-05-11T10:58:24.479Z,95028.77
2019-05-11T11:00:50.482Z,95032.23
2019-05-11T11:03:17.876Z,95028.66
2019-05-11T11:05:42.508Z,95026.11
2019-05-11T11:08:08.534Z,95023.95
2019-05-11T11:10:34.542Z,95026.11
2019-05-11T11:13:00.564Z,95034.50
2019-05-11T11:15:28.847Z,95023.87
2019-05-11T11:17:52.849Z,95020.27
2019-05-11T11:20:18.909Z,95026.42
2019-05-11T11:22:44.890Z,95024.18
2019-05-11T11:25:10.861Z,95022.84
2019-05-11T11:27:38.118Z,95025.92
2019-05-11T11:30:02.988Z,95027.45
2019-05-11T11:32:29.627Z,95019.06
2019-05-11T11:34:57.797Z,95019.89
2019-05-11T11:37:21.639Z,95021.22
2019-05-11T11:39:47.748Z,95013.83
2019-05-11T11:42:13.728Z,95017.31
2019-05-11T11:44:39.703Z,95017.31
2019-05-11T11:47:05.768Z,95019.06
2019-05-11T11:49:31.937Z,95012.84
2019-05-11T11:51:58.072Z,95011.92
2019-05-11T11:54:24.004Z,95004.75
2019-05-11T11:56:50.011Z,95002.09
2019-05-11T11:59:17.838Z,95005.28
2019-05-11T12:01:42.107Z,95012.64
2019-05-11T12:04:08.367Z,95003.02
2019-05-11T12:06:34.127Z,94999.36
2019-05-11T12:09:00.117Z,94989.23
2019-05-11T12:11:27.921Z,94989.65
2019-05-11T12:13:52.144Z,94996.78
2019-05-11T12:16:18.335Z,94994.55
2019-05-11T12:18:44.197Z,94994.46
2019-05-11T12:21:10.192Z,94995.45
2019-05-11T12:23:38.177Z,94991.05
2019-05-11T12:26:02.209Z,94987.48
2019-05-11T12:28:28.286Z,94985.36
2019-05-11T12:30:54.294Z,94987.08
2019-05-11T12:33:20.312Z,94984.95
2019-05-11T12:35:48.185Z,94984.03
2019-05-11T12:38:12.369Z,94977.78
2019-05-11T12:40:38.889Z,94985.66
2019-05-11T12:43:04.406Z,94983.09
2019-05-11T12:45:30.450Z,94979.44
2019-05-11T12:47:58.563Z,94982.81
2019-05-11T12:50:22.543Z,94976.37
2019-05-11T12:52:48.568Z,94974.12
2019-05-11T12:55:14.565Z,94970.75
2019-05-11T12:57:40.597Z,94967.48
2019-05-11T13:00:08.612Z,94973.71
2019-05-11T13:02:32.657Z,94977.58
2019-05-11T13:04:58.960Z,94970.56
2019-05-11T13:07:24.953Z,94966.58
2019-05-11T13:09:51.007Z,94965.74
2019-05-11T13:12:18.651Z,94962.89
2019-05-11T13:14:43.018Z,94964.52
2019-05-11T13:17:09.013Z,94965.36
2019-05-11T13:19:35.023Z,94964.97
2019-05-11T13:22:01.232Z,94967.51
2019-05-11T13:24:28.199Z,94964.80
2019-05-11T13:26:53.338Z,94963.69
2019-05-11T13:29:19.454Z,94957.26
2019-05-11T13:31:45.463Z,94955.21
2019-05-11T13:34:11.468Z,94952.25
2019-05-11T13:36:38.127Z,94954.69
2019-05-11T13:39:03.503Z,94947.55
2019-05-11T13:41:29.500Z,94944.97
2019-05-11T13:43:57.567Z,94950.41
2019-05-11T13:46:21.518Z,94941.19
2019-05-11T13:48:47.845Z,94942.52
2019-05-11T13:51:13.737Z,94941.69
2019-05-11T13:53:39.855Z,94947.11
2019-05-11T13:56:07.778Z,94943.95
2019-05-11T13:58:31.889Z,94941.19
2019-05-11T14:00:58.511Z,94939.14
2019-05-11T14:03:23.929Z,94940.97
2019-05-11T14:05:49.983Z,94945.38
2019-05-11T14:08:18.363Z,94944.95
2019-05-11T14:10:42.113Z,94953.53
2019-05-11T14:13:08.758Z,94942.83
2019-05-11T14:15:34.285Z,94945.48
2019-05-11T14:18:07.715Z,94945.56
2019-05-11T14:20:28.739Z,94949.55
2019-05-11T14:22:52.432Z,94948.72
2019-05-11T14:25:18.888Z,94951.79
2019-05-11T14:27:44.482Z,94943.82
2019-05-11T14:30:10.525Z,94943.82
2019-05-11T14:32:38.379Z,94948.64
2019-05-11T14:35:02.545Z,94953.12
2019-05-11T14:37:28.740Z,94951.91
2019-05-11T14:39:54.742Z,94948.33
2019-05-11T14:42:22.315Z,94954.56
2019-05-11T14:44:48.301Z,94951.38
2019-05-11T14:47:12.792Z,94950.88
2019-05-11T14:49:38.835Z,94945.06
2019-05-11T14:52:04.851Z,94947.19
2019-05-11T14:54:30.900Z,94943.32
2019-05-11T14:56:58.579Z,94949.05
2019-05-11T14:59:22.940Z,94945.48
2019-05-11T15:01:49.137Z,94950.80
2019-05-11T15:04:14.970Z,94937.89
2019-05-11T15:06:41.376Z,94945.67
2019-05-11T15:09:07.822Z,94940.47
2019-05-11T15:11:33.435Z,94944.27
2019-05-11T15:13:59.485Z,94944.67
2019-05-11T15:16:27.735Z,94939.44
2019-05-11T15:18:51.513Z,94948.24
2019-05-11T15:21:18.875Z,94936.78
2019-05-11T15:23:44.012Z,94933.22
2019-05-11T15:26:10.207Z,94937.12
2019-05-11T15:28:37.983Z,94940.99
2019-05-11T15:31:02.117Z,94937.42
2019-05-11T15:33:28.165Z,94937.01
2019-05-11T15:35:54.183Z,94941.41
2019-05-11T15:38:20.180Z,94942.73
2019-05-11T15:40:48.557Z,94943.16
2019-05-11T15:43:12.200Z,94933.36
2019-05-11T15:45:38.322Z,94937.14
2019-05-11T15:48:04.303Z,94932.55
2019-05-11T15:50:30.288Z,94935.70
2019-05-11T15:52:58.179Z,94936.00
2019-05-11T15:55:22.296Z,94934.17
2019-05-11T15:57:48.573Z,94933.98
2019-05-11T16:00:14.319Z,94932.57
2019-05-11T16:02:41.207Z,94936.74
2019-05-11T16:05:08.469Z,94936.74
2019-05-11T16:07:32.548Z,94937.98
2019-05-11T16:09:58.543Z,94940.53
2019-05-11T16:12:24.624Z,94944.93
2019-05-11T16:14:50.642Z,94950.47
2019-05-11T16:17:16.626Z,94949.85
2019-05-11T16:19:43.149Z,94955.17
2019-05-11T16:22:10.058Z,94956.83
2019-05-11T16:24:35.147Z,94951.31
2019-05-11T16:27:01.266Z,94949.58
2019-05-11T16:29:28.026Z,94949.16
2019-05-11T16:31:53.405Z,94955.80
2019-05-11T16:34:19.492Z,94954.67
2019-05-11T16:36:47.879Z,94952.51
2019-05-11T16:39:11.582Z,94952.51
2019-05-11T16:41:38.203Z,94953.13
2019-05-11T16:44:03.854Z,94961.51
2019-05-11T16:46:29.850Z,94962.92
2019-05-11T16:48:57.840Z,94960.67
2019-05-11T16:51:22.001Z,94967.32
2019-05-11T16:53:48.149Z,94975.41
2019-05-11T16:56:14.048Z,94981.63
2019-05-11T16:58:41.105Z,94977.73
2019-05-11T17:01:08.407Z,94981.72
2019-05-11T17:03:32.104Z,94981.22
2019-05-11T17:05:58.853Z,94980.50
2019-05-11T17:08:24.106Z,94985.40
2019-05-11T17:10:53.251Z,94985.40
2019-05-11T17:13:18.050Z,94992.05
2019-05-11T17:15:42.154Z,94992.46
2019-05-11T17:18:08.227Z,94999.59
2019-05-11T17:20:34.247Z,94998.38
2019-05-11T17:23:00.248Z,94998.80
2019-05-11T17:25:28.644Z,95000.13
2019-05-11T17:27:52.493Z,95011.97
2019-05-11T17:30:19.340Z,95005.44
2019-05-11T17:32:44.640Z,95005.44
2019-05-11T17:35:10.650Z,95005.94
2019-05-11T17:37:38.079Z,95007.27
2019-05-11T17:40:02.959Z,95008.09
2019-05-11T17:42:28.962Z,95011.75
2019-05-11T17:44:55.078Z,95013.99
2019-05-11T17:47:23.685Z,95017.59
2019-05-11T17:49:57.392Z,95016.98
2019-05-11T17:52:13.136Z,95016.27
2019-05-11T17:54:39.174Z,95027.80
2019-05-11T17:57:05.302Z,95030.66
2019-05-11T17:59:31.198Z,95031.37
2019-05-11T18:01:58.055Z,95032.29
2019-05-11T18:04:23.234Z,95042.42
2019-05-11T18:06:49.253Z,95036.58
2019-05-11T18:09:15.295Z,95033.00
2019-05-11T18:11:41.291Z,95030.27
2019-05-11T18:14:08.356Z,95022.57
2019-05-11T18:16:33.341Z,95034.06
2019-05-11T18:18:59.414Z,95032.62
2019-05-11T18:21:25.425Z,95034.36
2019-05-11T18:23:51.467Z,95039.37
2019-05-11T18:26:18.070Z,95039.27
2019-05-11T18:28:43.513Z,95037.52
2019-05-11T18:31:09.532Z,95043.36
2019-05-11T18:33:35.541Z,95042.94
2019-05-11T18:36:01.559Z,95039.87
2019-05-11T18:38:27.777Z,95054.91
2019-05-11T18:40:53.590Z,95057.25
2019-05-11T18:43:19.585Z,95054.91
2019-05-11T18:45:45.609Z,95051.75
2019-05-11T18:48:11.611Z,95059.80
2019-05-11T18:50:38.395Z,95061.13
2019-05-11T18:53:03.670Z,95059.72
2019-05-11T18:55:29.692Z,95064.62
2019-05-11T18:57:57.986Z,95068.69
2019-05-11T19:00:21.760Z,95065.39
2019-05-11T19:02:49.339Z,95073.28
2019-05-11T19:05:13.792Z,95075.44
2019-05-11T19:07:39.785Z,95078.31
2019-05-11T19:10:08.256Z,95079.95
2019-05-11T19:12:31.878Z,95082.30
2019-05-11T19:14:58.723Z,95076.27
2019-05-11T19:17:24.209Z,95077.18
2019-05-11T19:19:50.606Z,95081.58
2019-05-11T19:22:18.309Z,95082.91
2019-05-11T19:24:42.756Z,95087.01
2019-05-11T19:27:08.762Z,95086.89
2019-05-11T19:29:34.869Z,95093.54
2019-05-11T19:32:00.859Z,95090.47
2019-05-11T19:34:28.142Z,95088.34
2019-05-11T19:36:53.040Z,95089.97
2019-05-11T19:39:19.481Z,95089.55
2019-05-11T19:41:45.088Z,95089.25
2019-05-11T19:44:11.266Z,95087.92
2019-05-11T19:46:38.801Z,95086.18
2019-05-11T19:49:03.677Z,95086.09
2019-05-11T19:51:29.926Z,95089.66
2019-05-11T19:53:57.612Z,95097.30
2019-05-11T19:56:22.042Z,95094.76
2019-05-11T19:58:48.523Z,95103.75
2019-05-11T20:01:14.068Z,95104.78
2019-05-11T20:03:40.126Z,95105.61
2019-05-11T20:06:08.529Z,95103.87
2019-05-11T20:08:32.266Z,95108.27
2019-05-11T20:10:58.269Z,95102.13
2019-05-11T20:13:24.280Z,95098.55
2019-05-11T20:15:50.562Z,95103.45
2019-05-11T20:18:18.354Z,95110.02
2019-05-11T20:20:42.868Z,95112.25
2019-05-11T20:23:09.049Z,95110.92
2019-05-11T20:25:37.362Z,95111.84
2019-05-11T20:28:01.127Z,95115.71
2019-05-11T20:30:27.137Z,95117.57
2019-05-11T20:32:53.762Z,95118.37
2019-05-11T20:35:19.775Z,95120.30
2019-05-11T20:37:45.838Z,95122.36
2019-05-11T20:40:11.811Z,95124.52
2019-05-11T20:42:38.151Z,95120.03
2019-05-11T20:45:04.102Z,95125.95
2019-05-11T20:47:30.094Z,95116.13
2019-05-11T20:49:58.602Z,95119.70
2019-05-11T20:52:22.832Z,95122.36
2019-05-11T20:54:49.230Z,95128.01
2019-05-11T20:57:15.303Z,95121.36
2019-05-11T20:59:41.318Z,95135.06
2019-05-11T21:02:09.234Z,95133.73
2019-05-11T21:04:33.338Z,95135.56
2019-05-11T21:06:59.421Z,95134.73
2019-05-11T21:09:25.423Z,95137.80
2019-05-11T21:11:51.505Z,95136.97
2019-05-11T21:14:18.200Z,95137.91
2019-05-11T21:16:43.619Z,95139.02
2019-05-11T21:19:09.610Z,95144.22
2019-05-11T21:21:49.472Z,95144.14
2019-05-11T21:24:01.620Z,95141.48
2019-05-11T21:26:28.255Z,95146.87
2019-05-11T21:28:53.762Z,95145.13
2019-05-11T21:31:19.754Z,95146.58
2019-05-11T21:33:45.775Z,95146.16
2019-05-11T21:36:11.800Z,95145.74
2019-05-11T21:38:38.634Z,95138.69
2019-05-11T21:41:03.839Z,95140.54
2019-05-11T21:43:29.890Z,95144.52
2019-05-11T21:45:58.307Z,95139.21
2019-05-11T21:48:21.955Z,95141.87
2019-05-11T21:50:47.940Z,95137.96
2019-05-11T21:53:13.963Z,95139.82
2019-05-11T21:55:39.954Z,95134.50
2019-05-11T21:58:05.971Z,95141.64
2019-05-11T22:00:31.977Z,95137.66
2019-05-11T22:02:57.989Z,95136.83
2019-05-11T22:05:24.016Z,95131.02
2019-05-11T22:07:50.010Z,95118.75
2019-05-11T22:10:17.697Z,95118.75
2019-05-11T22:12:42.022Z,95112.11
2019-05-11T22:15:09.122Z,95103.61
2019-05-11T22:17:34.043Z,95104.14
2019-05-11T22:20:00.037Z,95102.59
2019-05-11T22:22:28.558Z,95105.55
2019-05-11T22:24:52.073Z,95114.44
2019-05-11T22:27:18.530Z,95111.77
2019-05-11T22:29:44.109Z,95113.02
2019-05-11T22:32:10.141Z,95113.44
2019-05-11T22:34:37.837Z,95112.69
2019-05-11T22:37:02.156Z,95110.86
2019-05-11T22:39:28.169Z,95110.45
2019-05-11T22:41:54.172Z,95113.52
2019-05-11T22:44:20.184Z,95111.36
2019-05-11T22:46:47.892Z,95112.69
2019-05-11T22:49:12.206Z,95114.96
2019-05-11T22:51:38.223Z,95114.02
2019-05-11T22:54:04.237Z,95116.67
2019-05-11T22:56:30.236Z,95117.20
2019-05-11T22:58:58.235Z,95116.67
2019-05-11T23:01:22.258Z,95117.62
2019-05-11T23:03:48.252Z,95119.44
2019-05-11T23:06:14.283Z,95112.80
2019-05-11T23:08:40.279Z,95114.55
2019-05-11T23:11:10.286Z,95115.87
2019-05-11T23:13:32.350Z,95114.96
2019-05-11T23:15:58.492Z,95111.89
2019-05-11T23:18:24.390Z,95110.03
2019-05-11T23:20:50.407Z,95110.97
2019-05-11T23:23:17.857Z,95110.56
2019-05-11T23:25:42.414Z,95106.58
2019-05-11T23:28:08.440Z,95104.41
2019-05-11T23:30:34.434Z,95107.07
2019-05-11T23:33:00.454Z,95107.07
2019-05-11T23:35:28.410Z,95103.08
2019-05-11T23:37:52.475Z,95108.81
2019-05-11T23:40:18.487Z,95109.23
2019-05-11T23:42:44.467Z,95103.08
2019-05-11T23:45:10.487Z,95104.60
2019-05-11T23:47:39.034Z,95109.73
2019-05-11T23:50:02.535Z,95109.73
2019-05-11T23:52:29.548Z,95105.73
2019-05-11T23:54:54.536Z,95105.44
2019-05-11T23:57:20.540Z,95115.45
2019-05-11T23:59:47.769Z,95115.53
